createdAt,value
2018-08-23T00:00:15.499Z,996.3
2018-08-23T00:03:15.841Z,996.3
2018-08-23T00:06:15.141Z,996.3
2018-08-23T00:09:15.414Z,996.3
2018-08-23T00:12:15.203Z,996.3
2018-08-23T00:15:15.580Z,996.3
2018-08-23T00:18:15.046Z,996.3
2018-08-23T00:21:15.415Z,996.3
2018-08-23T00:24:15.666Z,996.3
2018-08-23T00:27:15.774Z,996.3
2018-08-23T00:30:15.438Z,996.3
2018-08-23T00:33:15.114Z,996.3
2018-08-23T00:36:15.475Z,996.3
2018-08-23T00:39:15.726Z,996.3
2018-08-23T00:42:15.593Z,996.2
2018-08-23T00:45:15.749Z,996.2
2018-08-23T00:48:14.966Z,996.2
2018-08-23T00:51:15.111Z,996.2
2018-08-23T00:54:15.402Z,996.2
2018-08-23T00:57:15.599Z,996.2
2018-08-23T01:00:15.903Z,996.2
2018-08-23T01:03:15.335Z,996.2
2018-08-23T01:06:15.473Z,996.1
2018-08-23T01:09:15.750Z,996.2
2018-08-23T01:12:14.995Z,996.1
2018-08-23T01:15:15.830Z,996.2
2018-08-23T01:18:15.238Z,996.2
2018-08-23T01:21:15.489Z,996.2
2018-08-23T01:24:15.946Z,996.2
2018-08-23T01:27:15.741Z,996.2
2018-08-23T01:30:15.824Z,996.2
2018-08-23T01:33:14.923Z,996.1
2018-08-23T01:36:15.211Z,996.1
2018-08-23T01:39:15.851Z,996.1
2018-08-23T01:42:15.022Z,996.1
2018-08-23T01:45:15.583Z,996.1
2018-08-23T01:48:15.781Z,996.0
2018-08-23T01:51:15.954Z,995.9
2018-08-23T01:54:15.144Z,995.9
2018-08-23T01:57:15.296Z,995.9
2018-08-23T02:00:15.653Z,995.9
2018-08-23T02:03:15.232Z,995.8
2018-08-23T02:06:15.606Z,995.8
2018-08-23T02:09:15.154Z,995.8
2018-08-23T02:12:15.407Z,995.8
2018-08-23T02:15:14.994Z,995.8
2018-08-23T02:18:15.354Z,995.8
2018-08-23T02:21:15.494Z,995.8
2018-08-23T02:24:15.764Z,995.8
2018-08-23T02:27:15.877Z,995.9
2018-08-23T02:30:15.055Z,995.8
2018-08-23T02:33:15.331Z,995.8
2018-08-23T02:36:15.508Z,995.8
2018-08-23T02:39:15.759Z,995.8
2018-08-23T02:42:15.944Z,995.8
2018-08-23T02:45:15.104Z,995.7
2018-08-23T02:48:15.741Z,995.7
2018-08-23T02:51:15.110Z,995.8
2018-08-23T02:54:15.238Z,995.8
2018-08-23T02:57:15.422Z,995.7
2018-08-23T03:00:15.759Z,995.7
2018-08-23T03:03:15.615Z,995.7
2018-08-23T03:06:15.742Z,995.7
2018-08-23T03:09:15.552Z,995.7
2018-08-23T03:12:16.016Z,995.8
2018-08-23T03:15:15.257Z,995.8
2018-08-23T03:18:15.524Z,995.8
2018-08-23T03:21:15.687Z,995.7
2018-08-23T03:24:15.936Z,995.8
2018-08-23T03:27:14.999Z,995.8
2018-08-23T03:30:15.242Z,995.7
2018-08-23T03:33:15.660Z,995.8
2018-08-23T03:36:16.037Z,995.8
2018-08-23T03:39:15.454Z,995.9
2018-08-23T03:42:15.527Z,995.8
2018-08-23T03:45:15.166Z,995.8
2018-08-23T03:48:15.363Z,995.8
2018-08-23T03:51:15.628Z,995.8
2018-08-23T03:54:15.066Z,995.8
2018-08-23T03:57:15.262Z,995.8
2018-08-23T04:00:15.596Z,995.8
2018-08-23T04:03:15.770Z,995.8
2018-08-23T04:06:14.919Z,995.8
2018-08-23T04:09:15.185Z,995.8
2018-08-23T04:12:15.394Z,995.8
2018-08-23T04:15:15.659Z,995.8
2018-08-23T04:18:15.310Z,995.8
2018-08-23T04:21:15.549Z,995.7
2018-08-23T04:24:15.973Z,995.8
2018-08-23T04:27:15.449Z,995.8
2018-08-23T04:30:15.804Z,995.8
2018-08-23T04:33:15.103Z,995.8
2018-08-23T04:36:15.372Z,995.8
2018-08-23T04:39:15.116Z,995.9
2018-08-23T04:42:15.410Z,995.9
2018-08-23T04:45:15.652Z,995.9
2018-08-23T04:48:15.355Z,995.9
2018-08-23T04:51:15.805Z,995.9
2018-08-23T04:54:16.132Z,995.9
2018-08-23T04:57:15.254Z,995.9
2018-08-23T05:00:15.978Z,995.9
2018-08-23T05:03:15.943Z,995.9
2018-08-23T05:06:15.072Z,995.9
2018-08-23T05:09:15.466Z,995.9
2018-08-23T05:12:15.783Z,995.9
2018-08-23T05:15:15.220Z,995.9
2018-08-23T05:18:15.635Z,996.0
2018-08-23T05:21:15.854Z,996.0
2018-08-23T05:24:15.316Z,996.0
2018-08-23T05:27:15.998Z,996.0
2018-08-23T05:30:15.756Z,996.1
2018-08-23T05:33:15.903Z,996.1
2018-08-23T05:34:11.702Z,996.0
2018-08-23T05:39:20.615Z,996.0
2018-08-23T05:42:20.633Z,996.1
2018-08-23T05:45:20.460Z,996.2
2018-08-23T05:48:20.154Z,996.1
2018-08-23T05:51:20.391Z,996.2
2018-08-23T05:54:19.640Z,996.2
2018-08-23T05:57:20.620Z,996.2
2018-08-23T06:00:20.335Z,996.2
2018-08-23T06:03:20.057Z,996.2
2018-08-23T06:06:19.945Z,996.1
2018-08-23T06:09:19.821Z,996.0
2018-08-23T06:12:19.671Z,996.0
2018-08-23T06:15:20.272Z,996.0
2018-08-23T06:18:20.797Z,996.0
2018-08-23T06:21:19.930Z,996.0
2018-08-23T06:24:20.022Z,996.0
2018-08-23T06:27:20.001Z,996.0
2018-08-23T06:30:20.501Z,995.9
2018-08-23T06:33:20.777Z,995.9
2018-08-23T06:36:20.179Z,995.9
2018-08-23T06:39:19.860Z,995.9
2018-08-23T06:42:19.801Z,995.9
2018-08-23T06:45:20.125Z,995.9
2018-08-23T06:48:20.108Z,995.9
2018-08-23T06:51:20.996Z,995.9
2018-08-23T06:54:20.053Z,995.9
2018-08-23T06:57:20.140Z,995.8
2018-08-23T07:00:20.631Z,995.8
2018-08-23T07:03:20.120Z,995.9
2018-08-23T07:06:20.207Z,995.8
2018-08-23T07:09:20.275Z,995.8
2018-08-23T07:12:20.246Z,995.9
2018-08-23T07:15:20.376Z,995.8
2018-08-23T07:18:20.454Z,995.9
2018-08-23T07:21:20.424Z,995.9
2018-08-23T07:24:20.700Z,995.9
2018-08-23T07:27:20.624Z,996.0
2018-08-23T07:30:20.242Z,996.0
2018-08-23T07:33:20.486Z,996.1
2018-08-23T07:36:19.817Z,996.1
2018-08-23T07:39:20.483Z,996.0
2018-08-23T07:42:20.634Z,996.0
2018-08-23T07:45:20.905Z,996.0
2018-08-23T07:48:19.891Z,996.1
2018-08-23T07:51:20.002Z,996.1
2018-08-23T07:54:20.146Z,996.1
2018-08-23T07:57:20.192Z,996.1
2018-08-23T08:00:20.067Z,996.1
2018-08-23T08:03:20.615Z,996.1
2018-08-23T08:06:20.594Z,996.1
2018-08-23T08:09:20.742Z,996.0
2018-08-23T08:12:20.975Z,996.1
2018-08-23T08:15:20.491Z,996.1
2018-08-23T08:18:19.838Z,996.1
2018-08-23T08:21:20.061Z,996.1
2018-08-23T08:24:20.196Z,996.1
2018-08-23T08:27:20.428Z,996.1
2018-08-23T08:30:20.943Z,996.1
2018-08-23T08:33:20.444Z,996.0
2018-08-23T08:36:20.133Z,996.1
2018-08-23T08:39:20.184Z,996.1
2018-08-23T08:42:20.274Z,996.0
2018-08-23T08:45:20.124Z,996.0
2018-08-23T08:48:20.006Z,996.0
2018-08-23T08:51:20.049Z,995.9
2018-08-23T08:54:20.156Z,995.9
2018-08-23T08:57:20.492Z,995.8
2018-08-23T09:00:20.231Z,995.8
2018-08-23T09:03:20.143Z,995.8
2018-08-23T09:06:20.107Z,995.7
2018-08-23T09:09:20.559Z,995.7
2018-08-23T09:12:20.412Z,995.8
2018-08-23T09:15:20.694Z,995.7
2018-08-23T09:18:20.618Z,995.7
2018-08-23T09:21:20.695Z,995.7
2018-08-23T09:24:20.174Z,995.7
2018-08-23T09:27:20.630Z,995.7
2018-08-23T09:30:20.233Z,995.7
2018-08-23T09:33:20.584Z,995.7
2018-08-23T09:36:20.805Z,995.7
2018-08-23T09:39:19.849Z,995.6
2018-08-23T09:42:19.819Z,995.5
2018-08-23T09:45:20.540Z,995.6
2018-08-23T09:48:19.986Z,995.6
2018-08-23T09:51:20.160Z,995.6
2018-08-23T09:54:20.159Z,995.4
2018-08-23T09:57:20.230Z,995.4
2018-08-23T10:00:20.416Z,995.4
2018-08-23T10:03:20.801Z,995.3
2018-08-23T10:06:19.921Z,995.4
2018-08-23T10:09:20.030Z,995.4
2018-08-23T10:12:20.088Z,995.4
2018-08-23T10:15:20.598Z,995.3
2018-08-23T10:18:19.932Z,995.3
2018-08-23T10:21:20.080Z,995.2
2018-08-23T10:24:20.359Z,995.2
2018-08-23T10:27:20.059Z,995.1
2018-08-23T10:30:20.367Z,995.1
2018-08-23T10:33:21.400Z,995.1
2018-08-23T10:36:21.748Z,995.1
2018-08-23T10:39:21.338Z,995.0
2018-08-23T10:42:21.726Z,994.9
2018-08-23T10:45:22.346Z,995.0
2018-08-23T10:48:22.156Z,995.0
2018-08-23T10:51:22.394Z,994.9
2018-08-23T10:54:23.074Z,994.9
2018-08-23T10:57:23.442Z,994.9
2018-08-23T11:00:24.261Z,994.9
2018-08-23T11:03:24.751Z,994.8
2018-08-23T11:06:23.847Z,994.8
2018-08-23T11:09:23.745Z,994.8
2018-08-23T11:12:22.860Z,994.7
2018-08-23T11:15:22.959Z,994.7
2018-08-23T11:18:22.720Z,994.6
2018-08-23T11:21:22.502Z,994.6
2018-08-23T11:24:22.635Z,994.6
2018-08-23T11:27:22.930Z,994.5
2018-08-23T11:30:22.530Z,994.5
2018-08-23T11:33:22.769Z,994.4
2018-08-23T11:36:23.469Z,994.4
2018-08-23T11:39:23.362Z,994.4
2018-08-23T11:42:23.927Z,994.3
2018-08-23T11:45:23.495Z,994.3
2018-08-23T11:48:22.714Z,994.2
2018-08-23T11:51:21.040Z,994.3
2018-08-23T11:54:20.770Z,994.2
2018-08-23T11:57:21.139Z,994.2
2018-08-23T12:00:20.212Z,994.1
2018-08-23T12:03:20.425Z,994.0
2018-08-23T12:06:20.701Z,994.0
2018-08-23T12:09:20.668Z,994.0
2018-08-23T12:12:20.342Z,994.0
2018-08-23T12:15:20.633Z,994.0
2018-08-23T12:18:20.687Z,994.0
2018-08-23T12:21:20.556Z,994.0
2018-08-23T12:24:20.729Z,994.0
2018-08-23T12:27:19.723Z,993.9
2018-08-23T12:30:19.953Z,993.9
2018-08-23T12:33:20.264Z,993.9
2018-08-23T12:36:20.379Z,993.8
2018-08-23T12:39:20.108Z,993.8
2018-08-23T12:42:20.353Z,993.7
2018-08-23T12:45:20.216Z,993.7
2018-08-23T12:48:20.357Z,993.7
2018-08-23T12:51:20.510Z,993.6
2018-08-23T12:54:20.503Z,993.6
2018-08-23T12:57:20.829Z,993.5
2018-08-23T13:00:19.819Z,993.5
2018-08-23T13:03:20.197Z,993.5
2018-08-23T13:06:20.275Z,993.5
2018-08-23T13:09:20.350Z,993.5
2018-08-23T13:12:20.420Z,993.5
2018-08-23T13:15:20.537Z,993.4
2018-08-23T13:18:20.056Z,993.4
2018-08-23T13:21:20.251Z,993.4
2018-08-23T13:24:20.391Z,993.3
2018-08-23T13:27:20.220Z,993.4
2018-08-23T13:30:20.659Z,993.3
2018-08-23T13:33:20.807Z,993.3
2018-08-23T13:36:20.198Z,993.3
2018-08-23T13:39:20.402Z,993.2
2018-08-23T13:42:20.343Z,993.2
2018-08-23T13:45:20.501Z,993.2
2018-08-23T13:48:20.614Z,993.1
2018-08-23T13:51:20.745Z,993.1
2018-08-23T13:54:20.191Z,993.1
2018-08-23T13:57:20.289Z,993.1
2018-08-23T14:00:20.202Z,993.1
2018-08-23T14:03:20.312Z,993.1
2018-08-23T14:06:20.692Z,993.0
2018-08-23T14:09:20.827Z,992.9
2018-08-23T14:12:20.724Z,992.9
2018-08-23T14:15:19.799Z,992.9
2018-08-23T14:18:20.035Z,992.9
2018-08-23T14:21:20.161Z,992.8
2018-08-23T14:24:20.142Z,992.7
2018-08-23T14:27:20.372Z,992.8
2018-08-23T14:30:20.489Z,992.7
2018-08-23T14:33:20.684Z,992.8
2018-08-23T14:36:19.964Z,992.7
2018-08-23T14:39:20.175Z,992.7
2018-08-23T14:42:20.337Z,992.6
2018-08-23T14:45:20.366Z,992.6
2018-08-23T14:48:20.057Z,992.5
2018-08-23T14:51:20.061Z,992.6
2018-08-23T14:54:20.188Z,992.5
2018-08-23T14:57:20.034Z,992.4
2018-08-23T15:00:19.775Z,992.4
2018-08-23T15:03:20.133Z,992.3
2018-08-23T15:06:20.202Z,992.3
2018-08-23T15:09:20.238Z,992.3
2018-08-23T15:12:21.334Z,992.3
2018-08-23T15:15:19.917Z,992.2
2018-08-23T15:18:20.394Z,992.2
2018-08-23T15:21:20.472Z,992.1
2018-08-23T15:24:20.589Z,992.1
2018-08-23T15:27:20.991Z,992.0
2018-08-23T15:30:20.543Z,991.9
2018-08-23T15:33:21.006Z,991.9
2018-08-23T15:36:20.097Z,991.9
2018-08-23T15:39:20.344Z,991.9
2018-08-23T15:42:20.552Z,991.8
2018-08-23T15:45:20.539Z,991.9
2018-08-23T15:48:20.550Z,991.8
2018-08-23T15:51:20.510Z,991.8
2018-08-23T15:54:20.619Z,991.9
2018-08-23T15:57:20.734Z,991.9
2018-08-23T16:00:19.944Z,991.9
2018-08-23T16:03:20.221Z,991.9
2018-08-23T16:06:20.384Z,991.9
2018-08-23T16:09:20.459Z,991.9
2018-08-23T16:12:20.548Z,991.8
2018-08-23T16:15:20.685Z,991.9
2018-08-23T16:18:20.144Z,991.8
2018-08-23T16:21:20.243Z,991.8
2018-08-23T16:24:19.993Z,991.8
2018-08-23T16:27:20.020Z,991.8
2018-08-23T16:30:20.262Z,991.8
2018-08-23T16:33:20.530Z,991.7
2018-08-23T16:36:20.786Z,991.8
2018-08-23T16:39:19.874Z,991.8
2018-08-23T16:42:19.947Z,991.7
2018-08-23T16:45:20.265Z,991.7
2018-08-23T16:48:20.416Z,991.7
2018-08-23T16:51:20.377Z,991.7
2018-08-23T16:54:20.508Z,991.7
2018-08-23T16:57:20.515Z,991.6
2018-08-23T17:00:20.486Z,991.6
2018-08-23T17:03:20.517Z,991.5
2018-08-23T17:06:20.670Z,991.5
2018-08-23T17:09:20.045Z,991.4
2018-08-23T17:12:20.227Z,991.5
2018-08-23T17:15:20.652Z,991.5
2018-08-23T17:18:20.702Z,991.5
2018-08-23T17:21:19.754Z,991.5
2018-08-23T17:24:19.823Z,991.5
2018-08-23T17:27:19.879Z,991.5
2018-08-23T17:30:19.921Z,991.6
2018-08-23T17:33:20.154Z,991.6
2018-08-23T17:36:20.426Z,991.6
2018-08-23T17:39:20.384Z,991.6
2018-08-23T17:42:20.544Z,991.5
2018-08-23T17:45:19.924Z,991.5
2018-08-23T17:48:19.928Z,991.5
2018-08-23T17:51:19.910Z,991.5
2018-08-23T17:54:20.176Z,991.6
2018-08-23T17:57:20.118Z,991.6
2018-08-23T18:00:20.537Z,991.6
2018-08-23T18:03:20.972Z,991.6
2018-08-23T18:06:19.970Z,991.7
2018-08-23T18:09:20.397Z,991.7
2018-08-23T18:12:20.704Z,991.8
2018-08-23T18:15:20.558Z,992.0
2018-08-23T18:18:19.566Z,992.3
2018-08-23T18:21:20.716Z,992.4
2018-08-23T18:24:19.775Z,992.6
2018-08-23T18:27:19.013Z,992.5
2018-08-23T18:30:24.418Z,992.9
2018-08-23T18:33:19.676Z,992.8
2018-08-23T21:57:21.034Z,992.8
2018-08-23T22:00:19.450Z,992.8
2018-08-23T22:03:19.626Z,992.8
2018-08-23T22:06:20.205Z,992.9
2018-08-23T22:09:19.777Z,992.9
2018-08-23T22:12:19.499Z,992.9
2018-08-23T22:15:20.059Z,993.0
2018-08-23T22:18:19.567Z,993.0
2018-08-23T22:21:20.002Z,992.9
2018-08-23T22:24:19.508Z,992.9
2018-08-23T22:27:20.025Z,992.9
2018-08-23T22:30:19.376Z,992.9
2018-08-23T22:33:20.098Z,992.9
2018-08-23T22:36:19.480Z,993.0
2018-08-23T22:39:19.717Z,993.0
2018-08-23T22:42:19.637Z,992.9
2018-08-23T22:45:19.507Z,993.0
2018-08-23T22:48:19.866Z,993.0
2018-08-23T22:51:19.155Z,992.9
2018-08-23T22:54:19.455Z,992.9
2018-08-23T22:57:19.882Z,993.0
2018-08-23T23:00:19.194Z,992.9
2018-08-23T23:03:19.220Z,992.9
2018-08-23T23:06:19.318Z,992.9
2018-08-23T23:09:19.525Z,992.9
2018-08-23T23:12:19.979Z,992.9
2018-08-23T23:15:19.594Z,992.8
2018-08-23T23:18:19.770Z,992.7
2018-08-23T23:21:19.026Z,992.8
2018-08-23T23:24:19.402Z,992.8
2018-08-23T23:27:19.722Z,992.8
2018-08-23T23:30:20.128Z,992.9
2018-08-23T23:33:19.469Z,992.9
2018-08-23T23:36:19.739Z,992.9
2018-08-23T23:39:19.952Z,992.9
2018-08-23T23:42:19.347Z,992.8
2018-08-23T23:45:19.665Z,992.9
2018-08-23T23:48:20.127Z,992.8
2018-08-23T23:51:19.434Z,992.8
2018-08-23T23:54:19.755Z,992.8
2018-08-23T23:57:20.196Z,992.8
